Time;durP1;ratioP1;P1;durP2;ratioP2;P2;SDS_P1;SDS_P2;PMS_P1;PMS_P2;Temp;Humidity;BMP_temperature;BMP_pressure;BME280_temperature;BME280_humidity;BME280_pressure;Samples;Min_cycle;Max_cycle;Signal;HPM_P1;HPM_P2
2021/07/20 00:01:40;;;;;;;28.20;13.43;;;;;;;21.41;73.38;96366.34;4982053;28;20213;-74
2021/07/20 00:04:06;;;;;;;24.77;12.73;;;;;;;21.49;73.23;96365.97;4983461;28;20212;-74
2021/07/20 00:06:33;;;;;;;26.33;12.50;;;;;;;21.37;72.86;96367.88;4982092;28;20797;-74
2021/07/20 00:08:59;;;;;;;25.50;14.10;;;;;;;21.45;73.40;96360.25;4981286;28;20604;-74
2021/07/20 00:11:27;;;;;;;23.15;12.95;;;;;;;21.39;74.34;96365.78;4982193;28;20235;-74
2021/07/20 00:13:55;;;;;;;23.85;13.52;;;;;;;21.21;75.15;96363.28;4982569;28;20664;-74
2021/07/20 00:16:22;;;;;;;31.35;12.88;;;;;;;21.03;75.92;96354.63;4981646;28;20203;-74
2021/07/20 00:18:48;;;;;;;32.17;13.43;;;;;;;21.06;76.33;96359.50;4981908;28;20200;-74
2021/07/20 00:21:14;;;;;;;25.10;12.57;;;;;;;20.89;77.06;96358.63;4981298;28;20234;-74
2021/07/20 00:23:41;;;;;;;28.80;12.98;;;;;;;20.89;76.75;96362.13;4980445;28;20229;-74
2021/07/20 00:26:09;;;;;;;23.27;12.45;;;;;;;20.84;76.94;96358.53;4981540;28;20207;-74
2021/07/20 00:28:36;;;;;;;26.98;13.35;;;;;;;21.01;76.39;96365.56;4980710;28;20218;-74
2021/07/20 00:31:04;;;;;;;24.95;12.23;;;;;;;20.89;77.15;96359.44;4982917;28;20232;-74
2021/07/20 00:33:30;;;;;;;22.27;12.60;;;;;;;20.68;77.47;96361.91;4980439;28;20207;-74
2021/07/20 00:35:57;;;;;;;25.90;13.52;;;;;;;20.54;77.96;96370.44;4980990;28;20214;-74
2021/07/20 00:38:25;;;;;;;28.17;13.15;;;;;;;20.25;77.53;96360.66;4980221;28;20235;-74
2021/07/20 00:40:52;;;;;;;24.23;13.10;;;;;;;20.37;77.76;96364.16;4980581;28;20233;-74
2021/07/20 00:43:19;;;;;;;28.70;13.10;;;;;;;20.27;78.36;96366.63;4981115;28;20227;-74
2021/07/20 00:45:45;;;;;;;26.73;14.35;;;;;;;20.39;78.05;96356.69;4981907;28;20215;-74
2021/07/20 00:48:13;;;;;;;26.52;14.18;;;;;;;20.58;77.92;96360.88;4981899;28;20608;-74
2021/07/20 00:50:42;;;;;;;24.95;12.75;;;;;;;20.48;78.18;96358.81;4980649;28;20233;-74
2021/07/20 00:53:09;;;;;;;27.98;13.85;;;;;;;20.59;78.63;96362.50;4981282;28;20199;-74
2021/07/20 00:55:37;;;;;;;29.48;13.98;;;;;;;20.68;77.70;96371.81;4980845;28;20203;-74
2021/07/20 00:58:04;;;;;;;31.38;13.50;;;;;;;20.60;77.09;96369.50;4980133;28;20238;-74
2021/07/20 01:00:30;;;;;;;24.55;12.43;;;;;;;20.33;78.63;96366.50;4980784;28;20224;-74
2021/07/20 01:02:56;;;;;;;26.85;14.05;;;;;;;20.38;78.32;96366.59;4983707;28;20218;-74
2021/07/20 01:05:26;;;;;;;25.60;13.63;;;;;;;20.42;78.44;96372.31;4981807;28;20203;-74
2021/07/20 01:07:53;;;;;;;24.38;12.88;;;;;;;20.26;78.46;96367.66;4981773;28;20199;-74
2021/07/20 01:10:21;;;;;;;28.85;13.27;;;;;;;20.17;79.02;96363.69;4981120;28;20258;-74
2021/07/20 01:12:49;;;;;;;27.20;13.23;;;;;;;20.20;78.32;96364.06;4980735;28;20207;-74
2021/07/20 01:15:17;;;;;;;25.35;13.32;;;;;;;20.08;78.51;96372.31;4980541;28;20207;-74
2021/07/20 01:17:46;;;;;;;29.35;13.75;;;;;;;20.08;77.88;96364.28;4978933;28;20945;-74
2021/07/20 01:20:15;;;;;;;24.77;13.25;;;;;;;20.19;77.65;96364.28;4979918;28;20238;-74
2021/07/20 01:22:52;;;;;;;26.50;13.85;;;;;;;20.20;77.25;96368.59;4981480;28;20842;-74
2021/07/20 01:25:21;;;;;;;27.17;13.50;;;;;;;20.12;78.80;96374.28;4982464;28;20231;-74
2021/07/20 01:27:51;;;;;;;31.35;13.73;;;;;;;20.26;77.12;96365.81;4980831;28;20203;-74
2021/07/20 01:30:18;;;;;;;21.80;12.43;;;;;;;20.25;76.78;96366.84;4982675;28;20230;-74
2021/07/20 01:32:47;;;;;;;25.98;13.85;;;;;;;20.30;77.35;96363.47;4983328;28;20210;-74
2021/07/20 01:35:14;;;;;;;23.45;12.57;;;;;;;20.34;76.51;96362.78;4982091;28;20663;-74
2021/07/20 01:37:43;;;;;;;22.83;13.00;;;;;;;20.31;76.67;96365.09;4982614;28;20230;-74
2021/07/20 01:40:11;;;;;;;31.60;13.65;;;;;;;20.25;76.08;96358.00;4981087;28;20231;-74
2021/07/20 01:42:42;;;;;;;26.23;13.75;;;;;;;20.36;76.80;96362.53;4981049;28;20220;-74
2021/07/20 01:45:10;;;;;;;27.48;13.65;;;;;;;20.07;78.86;96350.09;4981397;28;20207;-74
2021/07/20 01:47:38;;;;;;;27.80;13.20;;;;;;;20.27;77.87;96354.03;4981334;28;20231;-74
2021/07/20 01:50:07;;;;;;;25.17;13.20;;;;;;;19.93;78.49;96356.69;4982321;28;20222;-74
2021/07/20 01:52:34;;;;;;;23.10;12.70;;;;;;;19.75;79.06;96359.44;4978980;28;20210;-74
2021/07/20 01:55:01;;;;;;;24.67;13.30;;;;;;;19.75;79.77;96358.63;4981640;28;20214;-74
2021/07/20 01:57:27;;;;;;;24.17;12.52;;;;;;;19.57;79.66;96356.84;4981343;28;20230;-74
2021/07/20 01:59:56;;;;;;;22.92;11.73;;;;;;;19.70;79.62;96361.19;4983453;28;20223;-74
2021/07/20 02:02:32;;;;;;;28.63;12.93;;;;;;;19.58;80.53;96350.47;4982095;28;20199;-74
2021/07/20 02:10:34;;;;;;;23.73;12.43;;;;;;;19.31;81.35;96361.81;4982128;28;20230;-74
2021/07/20 02:13:03;;;;;;;32.42;13.55;;;;;;;19.10;82.87;96364.16;4981235;28;20663;-74
2021/07/20 02:15:32;;;;;;;23.60;13.05;;;;;;;19.28;82.42;96366.78;4980131;28;20357;-74
2021/07/20 02:18:01;;;;;;;26.58;12.15;;;;;;;19.34;81.68;96366.69;4980719;28;20711;-74
2021/07/20 02:20:30;;;;;;;23.45;12.77;;;;;;;19.41;80.87;96362.06;4981506;28;20231;-74
2021/07/20 02:22:59;;;;;;;22.63;11.88;;;;;;;19.48;80.20;96370.78;4983621;28;20214;-74
2021/07/20 02:25:28;;;;;;;20.08;11.45;;;;;;;19.30;80.58;96367.38;4980820;28;20203;-74
2021/07/20 02:27:55;;;;;;;23.70;12.02;;;;;;;19.10;82.14;96364.16;4981639;28;20199;-74
2021/07/20 02:30:23;;;;;;;27.27;13.00;;;;;;;19.14;81.97;96366.16;4982081;28;20224;-74
2021/07/20 02:32:52;;;;;;;21.65;12.00;;;;;;;19.27;81.84;96359.78;4982850;28;20207;-74
2021/07/20 02:35:22;;;;;;;24.70;12.30;;;;;;;19.21;82.11;96366.06;4981935;28;20229;-74
2021/07/20 02:37:51;;;;;;;23.90;11.65;;;;;;;18.97;82.64;96356.28;4979083;28;20262;-74
2021/07/20 02:40:18;;;;;;;23.20;10.85;;;;;;;19.06;81.66;96369.13;4980447;28;20888;-74
2021/07/20 02:42:46;;;;;;;25.60;12.20;;;;;;;18.86;82.33;96364.25;4980386;28;20212;-74
2021/07/20 02:45:14;;;;;;;29.35;11.82;;;;;;;18.91;82.09;96365.19;4981921;28;20765;-74
2021/07/20 02:47:42;;;;;;;27.83;12.10;;;;;;;18.79;82.80;96366.16;4981812;28;20203;-74
2021/07/20 02:50:14;;;;;;;27.85;12.68;;;;;;;19.04;82.10;96367.69;4983142;28;20219;-74
2021/07/20 02:52:43;;;;;;;23.85;11.65;;;;;;;19.00;81.76;96366.50;4979708;28;20230;-74
2021/07/20 02:55:12;;;;;;;27.60;12.00;;;;;;;19.10;81.43;96364.94;4982177;28;20203;-74
2021/07/20 02:57:40;;;;;;;23.98;11.50;;;;;;;18.90;80.85;96374.22;4983446;28;20610;-74
2021/07/20 03:00:07;;;;;;;23.30;10.68;;;;;;;18.92;80.71;96377.50;4980411;28;20219;-74
2021/07/20 03:02:36;;;;;;;21.00;11.68;;;;;;;18.93;81.11;96366.59;4983051;28;20256;-74
2021/07/20 03:05:04;;;;;;;21.35;11.02;;;;;;;18.65;82.21;96370.06;4984568;28;20211;-74
2021/07/20 03:07:34;;;;;;;25.08;11.98;;;;;;;18.78;81.64;96370.69;4984112;28;20203;-74
2021/07/20 03:10:01;;;;;;;32.67;11.20;;;;;;;18.71;81.83;96372.66;4983411;28;20235;-74
2021/07/20 03:12:30;;;;;;;22.52;11.20;;;;;;;18.82;81.94;96369.22;4984614;28;20203;-74
2021/07/20 03:14:58;;;;;;;24.08;11.65;;;;;;;18.61;81.96;96372.34;4984932;28;20210;-74
2021/07/20 03:17:26;;;;;;;20.73;10.10;;;;;;;18.63;81.26;96369.44;4982967;28;20210;-74
2021/07/20 03:19:54;;;;;;;23.13;10.45;;;;;;;18.64;81.03;96368.41;4982467;28;20223;-74
2021/07/20 03:22:24;;;;;;;21.80;10.85;;;;;;;18.66;81.04;96375.16;4984563;28;20203;-74
2021/07/20 03:24:53;;;;;;;19.98;10.15;;;;;;;18.67;80.77;96370.63;4983221;28;20217;-74
2021/07/20 03:27:22;;;;;;;20.42;11.45;;;;;;;18.70;80.33;96379.03;4984687;28;20204;-74
2021/07/20 03:29:50;;;;;;;25.48;10.60;;;;;;;18.54;80.64;96376.94;4985219;28;20230;-74
2021/07/20 03:32:17;;;;;;;25.98;11.23;;;;;;;18.29;80.93;96380.72;4985524;28;20203;-74
2021/07/20 03:34:45;;;;;;;21.65;10.98;;;;;;;18.44;81.19;96382.00;4987124;28;20232;-74
2021/07/20 03:37:13;;;;;;;26.17;11.30;;;;;;;18.38;81.86;96379.41;4984584;28;20204;-74
2021/07/20 03:39:41;;;;;;;28.23;12.23;;;;;;;18.46;82.08;96379.91;4983846;28;20239;-74
2021/07/20 03:42:10;;;;;;;26.90;11.95;;;;;;;18.52;82.47;96389.69;4983664;28;20691;-74
2021/07/20 03:44:38;;;;;;;25.38;11.88;;;;;;;18.38;82.44;96384.72;4984438;28;20204;-74
2021/07/20 03:47:05;;;;;;;25.95;11.63;;;;;;;18.14;82.34;96384.72;4985356;28;20203;-74
2021/07/20 03:49:34;;;;;;;24.80;10.93;;;;;;;18.11;82.51;96393.97;4984303;28;20234;-74
2021/07/20 03:52:02;;;;;;;21.23;10.77;;;;;;;18.05;81.89;96394.03;4982834;28;20207;-74
2021/07/20 03:54:32;;;;;;;24.67;11.02;;;;;;;18.26;81.86;96402.47;4985688;28;20195;-74
2021/07/20 03:57:00;;;;;;;18.98;10.40;;;;;;;18.19;81.61;96400.91;4984892;28;20215;-74
2021/07/20 03:59:30;;;;;;;22.55;10.38;;;;;;;18.34;81.10;96397.69;4986026;28;21237;-74
2021/07/20 04:02:00;;;;;;;25.55;11.18;;;;;;;18.41;81.06;96394.94;4986048;28;20207;-74
2021/07/20 04:04:30;;;;;;;24.45;10.45;;;;;;;18.29;81.20;96401.22;4984403;28;20214;-74
2021/07/20 04:07:01;;;;;;;20.13;10.70;;;;;;;17.95;82.34;96396.41;4986447;28;20230;-74
2021/07/20 04:09:27;;;;;;;23.38;10.82;;;;;;;17.86;83.10;96397.72;4984544;28;20211;-74
2021/07/20 04:11:56;;;;;;;20.60;11.18;;;;;;;17.99;83.31;96398.41;4984268;28;20207;-74
2021/07/20 04:14:24;;;;;;;22.65;10.68;;;;;;;18.05;83.51;96394.03;4984993;28;20223;-74
2021/07/20 04:16:52;;;;;;;20.95;10.23;;;;;;;18.15;83.19;96402.34;4984736;28;20690;-74
2021/07/20 04:19:19;;;;;;;22.38;10.82;;;;;;;18.15;83.45;96397.03;4984043;28;20343;-74
2021/07/20 04:21:46;;;;;;;20.73;11.10;;;;;;;18.14;83.66;96404.22;4984436;28;20203;-74
2021/07/20 04:24:13;;;;;;;21.08;10.48;;;;;;;18.34;82.74;96403.03;4986664;28;20204;-74
2021/07/20 04:26:41;;;;;;;19.80;9.77;;;;;;;18.41;82.31;96395.75;4984484;28;20655;-74
2021/07/20 04:29:08;;;;;;;18.90;10.38;;;;;;;18.44;82.27;96400.66;4985783;28;20208;-74
2021/07/20 04:31:39;;;;;;;23.33;10.63;;;;;;;18.40;83.02;96404.00;4985872;28;20270;-74
2021/07/20 04:34:08;;;;;;;19.38;10.60;;;;;;;18.54;82.81;96413.50;4987315;28;20202;-74
2021/07/20 04:36:36;;;;;;;20.83;10.45;;;;;;;18.62;82.67;96414.03;4984212;28;20218;-74
2021/07/20 04:39:04;;;;;;;20.15;10.88;;;;;;;18.55;83.11;96407.94;4984335;28;20241;-74
2021/07/20 04:41:31;;;;;;;28.30;11.23;;;;;;;18.45;83.68;96407.63;4984907;28;20223;-74
2021/07/20 04:43:58;;;;;;;22.27;11.00;;;;;;;18.43;85.08;96414.22;4985768;28;20207;-74
2021/07/20 04:46:25;;;;;;;21.45;10.75;;;;;;;18.55;84.45;96417.81;4984661;28;20203;-74
2021/07/20 04:48:51;;;;;;;22.70;11.77;;;;;;;18.59;84.78;96419.78;4985401;28;20192;-74
2021/07/20 04:51:20;;;;;;;28.17;11.75;;;;;;;18.79;84.44;96427.56;4983489;28;20573;-74
2021/07/20 04:53:47;;;;;;;28.85;12.73;;;;;;;18.69;84.83;96422.75;4986677;28;20199;-74
2021/07/20 04:56:14;;;;;;;29.13;12.10;;;;;;;18.88;84.61;96419.06;4984023;28;20566;-74
2021/07/20 04:58:40;;;;;;;36.22;13.27;;;;;;;18.86;84.78;96421.13;4985183;28;20231;-74
2021/07/20 05:01:08;;;;;;;28.83;12.77;;;;;;;19.01;85.17;96424.25;4986803;28;20611;-74
2021/07/20 05:03:36;;;;;;;28.27;13.32;;;;;;;19.07;85.36;96426.06;4986197;28;20217;-74
2021/07/20 05:06:04;;;;;;;24.00;14.00;;;;;;;19.07;85.51;96431.41;4985862;28;20737;-74
2021/07/20 05:08:33;;;;;;;27.90;12.70;;;;;;;19.30;84.83;96434.19;4983204;28;20277;-74
2021/07/20 05:11:01;;;;;;;25.27;12.55;;;;;;;19.09;85.50;96427.47;4976371;28;20231;-74
2021/07/20 05:13:28;;;;;;;22.23;12.32;;;;;;;19.11;86.49;96435.25;4976128;28;20207;-73
2021/07/20 05:15:56;;;;;;;24.25;13.23;;;;;;;19.29;86.54;96430.69;4976312;28;20214;-74
2021/07/20 05:18:23;;;;;;;28.80;12.98;;;;;;;19.41;86.08;96426.22;4974902;28;21249;-73
2021/07/20 05:20:54;;;;;;;28.42;13.75;;;;;;;19.46;84.79;96430.88;4974895;28;20242;-74
2021/07/20 05:23:21;;;;;;;30.80;14.10;;;;;;;19.51;84.23;96431.00;4972964;28;20211;-74
2021/07/20 05:25:53;;;;;;;31.30;15.32;;;;;;;19.59;83.87;96440.34;4975227;28;20753;-74
2021/07/20 05:28:20;;;;;;;27.83;14.57;;;;;;;19.72;84.39;96442.00;4975068;28;20200;-73
2021/07/20 05:30:50;;;;;;;40.30;15.80;;;;;;;19.81;84.73;96446.78;4976515;28;20227;-74
2021/07/20 05:33:19;;;;;;;28.02;14.77;;;;;;;19.82;84.40;96440.41;4975830;28;20206;-74
2021/07/20 05:35:46;;;;;;;31.95;15.05;;;;;;;19.43;85.50;96440.16;4976780;28;20253;-74
2021/07/20 05:38:13;;;;;;;31.15;14.98;;;;;;;19.77;84.26;96442.94;4974600;28;20663;-74
2021/07/20 05:40:40;;;;;;;33.60;14.75;;;;;;;19.71;84.21;96451.88;4975883;28;20230;-74
2021/07/20 05:43:09;;;;;;;28.45;14.23;;;;;;;20.00;83.37;96447.59;4975880;28;20207;-73
2021/07/20 05:45:36;;;;;;;27.77;15.23;;;;;;;19.95;83.98;96445.56;4976132;28;20204;-75
2021/07/20 05:48:04;;;;;;;27.77;14.05;;;;;;;20.01;82.81;96444.66;4975081;28;20202;-74
2021/07/20 05:50:31;;;;;;;27.75;15.77;;;;;;;20.02;82.63;96448.97;4975355;28;20219;-73
2021/07/20 05:53:00;;;;;;;29.42;14.63;;;;;;;19.98;83.75;96445.09;4976647;28;20667;-74
2021/07/20 05:55:27;;;;;;;28.42;14.35;;;;;;;20.22;80.83;96438.75;4976147;28;20203;-75
2021/07/20 05:57:54;;;;;;;26.58;14.15;;;;;;;20.27;80.79;96446.91;4974550;28;20203;-74
2021/07/20 06:00:25;;;;;;;25.27;14.23;;;;;;;20.21;81.05;96451.34;4975654;28;20231;-74
2021/07/20 06:02:53;;;;;;;27.25;13.90;;;;;;;20.21;80.92;96456.69;4975448;28;20678;-74
2021/07/20 06:05:20;;;;;;;25.48;14.40;;;;;;;20.39;80.10;96453.06;4975488;28;20207;-73
2021/07/20 06:07:49;;;;;;;25.67;14.45;;;;;;;20.36;81.32;96450.88;4975110;28;20210;-74
2021/07/20 06:10:19;;;;;;;27.52;14.10;;;;;;;20.68;79.40;96462.88;4975034;28;20288;-74
2021/07/20 06:12:47;;;;;;;26.98;13.88;;;;;;;20.74;79.97;96453.94;4975194;28;20195;-73
2021/07/20 06:15:16;;;;;;;22.90;13.05;;;;;;;20.86;78.78;96456.38;4975268;28;20218;-74
2021/07/20 06:17:45;;;;;;;25.50;12.43;;;;;;;20.78;76.80;96457.78;4974621;28;20260;-73
2021/07/20 06:20:12;;;;;;;25.55;13.18;;;;;;;20.81;75.84;96454.63;4975391;28;21145;-74
2021/07/20 06:22:45;;;;;;;23.98;12.88;;;;;;;20.84;78.62;96461.13;4972640;28;20241;-74
2021/07/20 06:25:16;;;;;;;26.75;12.50;;;;;;;21.12;77.88;96466.56;4974852;28;20675;-74
2021/07/20 06:27:44;;;;;;;25.38;12.63;;;;;;;21.08;74.17;96462.72;4973430;28;20199;-73
2021/07/20 06:30:14;;;;;;;24.98;12.25;;;;;;;21.13;76.40;96468.19;4974671;28;20662;-73
2021/07/20 06:32:41;;;;;;;27.60;13.25;;;;;;;21.19;74.60;96472.59;4974847;28;20218;-73
2021/07/20 06:35:13;;;;;;;27.55;13.85;;;;;;;21.05;75.13;96473.94;4974646;28;20940;-74
2021/07/20 06:37:42;;;;;;;28.48;12.88;;;;;;;20.97;76.45;96474.28;4975716;28;20207;-74
2021/07/20 06:40:15;;;;;;;22.85;12.20;;;;;;;21.40;75.22;96469.28;4977779;28;20241;-74
2021/07/20 06:42:42;;;;;;;21.77;12.55;;;;;;;21.06;74.47;96472.84;4978053;28;20288;-73
2021/07/20 06:45:10;;;;;;;24.15;12.55;;;;;;;21.33;72.72;96473.97;4978646;28;20256;-73
2021/07/20 06:47:39;;;;;;;22.27;11.40;;;;;;;21.59;73.41;96468.09;4977429;28;20226;-73
2021/07/20 06:50:08;;;;;;;22.48;12.93;;;;;;;21.63;72.66;96470.03;4977873;28;20239;-73
2021/07/20 06:52:36;;;;;;;23.83;12.57;;;;;;;21.60;71.83;96472.38;4979661;28;20207;-74
2021/07/20 06:55:03;;;;;;;20.27;10.88;;;;;;;21.50;71.73;96472.19;4978302;28;20214;-74
2021/07/20 06:57:32;;;;;;;21.92;11.48;;;;;;;21.76;68.56;96469.75;4977393;28;20203;-74
2021/07/20 06:59:59;;;;;;;19.33;11.15;;;;;;;21.95;71.21;96463.13;4977707;28;20541;-74
2021/07/20 07:02:27;;;;;;;18.25;10.65;;;;;;;21.67;70.47;96465.03;4978687;28;20218;-74
2021/07/20 07:04:58;;;;;;;23.33;11.70;;;;;;;21.97;68.63;96468.25;4978019;28;20260;-74
2021/07/20 07:07:27;;;;;;;20.60;11.73;;;;;;;21.82;69.37;96466.13;4977802;28;20210;-74
2021/07/20 07:09:56;;;;;;;21.58;12.20;;;;;;;22.12;71.70;96470.16;4978604;28;20644;-74
2021/07/20 07:12:23;;;;;;;22.73;11.50;;;;;;;21.54;73.58;96466.13;4977955;28;20210;-73
2021/07/20 07:14:52;;;;;;;24.63;12.27;;;;;;;22.05;69.70;96469.47;4978223;28;20593;-74
2021/07/20 07:17:18;;;;;;;26.45;11.52;;;;;;;21.79;72.05;96471.13;4977456;28;20207;-74
2021/07/20 07:19:46;;;;;;;22.88;11.07;;;;;;;22.37;70.34;96469.78;4978330;28;20253;-73
2021/07/20 07:22:15;;;;;;;21.25;11.05;;;;;;;22.83;69.64;96475.59;4975937;28;20195;-73
2021/07/20 07:24:43;;;;;;;20.52;11.13;;;;;;;23.14;66.82;96470.44;4977066;28;20589;-74
2021/07/20 07:27:13;;;;;;;21.88;10.95;;;;;;;22.72;66.17;96481.88;4977643;28;20204;-73
2021/07/20 07:29:40;;;;;;;20.35;11.30;;;;;;;22.88;66.10;96475.69;4977819;28;20226;-74
2021/07/20 07:32:07;;;;;;;22.90;10.85;;;;;;;22.70;65.88;96475.97;4977874;28;20211;-73
2021/07/20 07:34:34;;;;;;;21.42;11.68;;;;;;;22.62;66.64;96476.38;4978271;28;20203;-74
2021/07/20 07:37:01;;;;;;;22.00;11.30;;;;;;;22.43;67.31;96474.16;4977062;28;20203;-74
2021/07/20 07:39:28;;;;;;;21.08;11.40;;;;;;;22.22;67.76;96481.06;4977452;28;20253;-74
2021/07/20 07:41:56;;;;;;;22.30;11.00;;;;;;;22.30;67.53;96485.22;4977459;28;20226;-74
2021/07/20 07:44:24;;;;;;;19.95;10.80;;;;;;;22.80;64.91;96486.84;4977543;28;20603;-73
2021/07/20 07:46:54;;;;;;;21.95;11.73;;;;;;;23.03;64.86;96478.63;4978224;28;20199;-74
2021/07/20 07:49:21;;;;;;;22.08;12.55;;;;;;;23.04;62.93;96488.28;4976942;28;20200;-74
2021/07/20 07:51:50;;;;;;;23.35;11.60;;;;;;;22.93;62.54;96489.19;4976388;28;20211;-73
2021/07/20 07:54:18;;;;;;;24.17;10.60;;;;;;;23.38;61.52;96482.56;4977324;28;20199;-74
2021/07/20 07:56:46;;;;;;;18.45;10.88;;;;;;;23.64;63.33;96469.19;4977229;28;20576;-73
2021/07/20 07:59:14;;;;;;;18.17;11.32;;;;;;;23.41;60.92;96477.50;4976611;28;20250;-74
2021/07/20 08:01:47;;;;;;;19.60;10.68;;;;;;;23.67;59.52;96476.75;4978079;28;20200;-74
2021/07/20 08:04:18;;;;;;;22.13;11.48;;;;;;;23.84;60.31;96474.81;4975797;28;20199;-74
2021/07/20 08:06:46;;;;;;;21.30;10.55;;;;;;;23.93;62.46;96476.78;4977730;28;20214;-74
2021/07/20 08:09:15;;;;;;;17.60;10.35;;;;;;;24.15;61.55;96474.06;4975570;28;20200;-74
2021/07/20 08:11:45;;;;;;;20.75;10.13;;;;;;;24.00;57.70;96473.91;4977450;28;20207;-73
2021/07/20 08:14:14;;;;;;;19.80;10.65;;;;;;;23.88;58.17;96483.19;4977150;28;20262;-74
2021/07/20 08:16:50;;;;;;;18.00;9.85;;;;;;;23.81;57.38;96478.00;4977378;28;20659;-74
2021/07/20 08:19:19;;;;;;;23.30;11.88;;;;;;;24.22;58.41;96480.03;4977526;28;20226;-74
2021/07/20 08:21:46;;;;;;;16.85;10.20;;;;;;;24.40;58.45;96487.78;4977506;28;20203;-74
2021/07/20 08:24:14;;;;;;;19.45;10.15;;;;;;;24.47;57.98;96483.00;4976641;28;20674;-74
2021/07/20 08:26:46;;;;;;;19.98;10.60;;;;;;;23.88;60.13;96481.31;4977330;28;20219;-74
2021/07/20 08:29:17;;;;;;;18.88;11.13;;;;;;;24.44;60.11;96475.41;4976073;28;20572;-74
2021/07/20 08:31:50;;;;;;;17.30;10.40;;;;;;;24.39;57.36;96475.34;4976547;28;20196;-73
2021/07/20 08:34:20;;;;;;;20.95;11.60;;;;;;;23.55;60.26;96481.44;4977107;28;20207;-74
2021/07/20 08:36:49;;;;;;;22.55;11.52;;;;;;;24.04;62.38;96481.22;4976658;28;20204;-74
2021/07/20 08:39:17;;;;;;;20.42;11.13;;;;;;;24.64;60.97;96474.50;4975742;28;20256;-74
2021/07/20 08:42:04;;;;;;;22.40;11.48;;;;;;;24.78;63.09;96474.88;4976966;28;20214;-74
2021/07/20 08:44:57;;;;;;;22.70;11.52;;;;;;;24.67;62.33;96473.19;4976789;28;20236;-74
2021/07/20 08:47:50;;;;;;;18.83;10.90;;;;;;;23.88;68.24;96467.88;4975124;28;20203;-75
2021/07/20 08:50:21;;;;;;;25.63;11.55;;;;;;;24.75;61.75;96465.41;4976055;28;20219;-75
2021/07/20 08:52:58;;;;;;;24.50;11.57;;;;;;;24.57;58.67;96473.91;4976528;28;20249;-75
2021/07/20 08:55:28;;;;;;;24.85;12.20;;;;;;;24.35;60.30;96474.22;4975683;28;20214;-74
2021/07/20 08:57:57;;;;;;;19.95;11.50;;;;;;;24.34;59.28;96473.41;4976029;28;20208;-74
2021/07/20 09:00:26;;;;;;;23.35;12.13;;;;;;;24.43;56.20;96466.53;4975449;28;20585;-74
2021/07/20 09:03:02;;;;;;;25.17;11.70;;;;;;;24.39;58.85;96472.66;4974337;28;20472;-75
2021/07/20 09:05:35;;;;;;;19.85;11.27;;;;;;;24.53;58.08;96471.16;4976302;28;20203;-74
2021/07/20 09:08:05;;;;;;;18.58;10.60;;;;;;;24.62;59.74;96475.84;4976028;28;20686;-75
2021/07/20 09:10:41;;;;;;;18.73;11.15;;;;;;;24.49;58.33;96475.44;4976306;28;20223;-74
2021/07/20 09:13:13;;;;;;;20.60;11.55;;;;;;;24.56;60.45;96474.97;4977075;28;20203;-74
2021/07/20 09:15:45;;;;;;;20.85;12.13;;;;;;;24.45;57.51;96474.34;4976208;28;20204;-74
2021/07/20 09:18:20;;;;;;;22.75;12.15;;;;;;;24.82;54.86;96478.66;4975364;28;20599;-74
2021/07/20 09:20:50;;;;;;;20.33;11.20;;;;;;;24.80;54.70;96476.22;4976384;28;20280;-74
2021/07/20 09:23:21;;;;;;;24.17;12.27;;;;;;;24.89;55.58;96480.06;4976683;28;20265;-74
2021/07/20 09:25:57;;;;;;;21.50;11.30;;;;;;;25.26;59.47;96475.47;4975779;28;20207;-74
2021/07/20 09:28:28;;;;;;;20.95;12.15;;;;;;;24.98;58.57;96475.00;4975294;28;20210;-74
2021/07/20 09:30:56;;;;;;;22.83;12.70;;;;;;;25.58;56.95;96476.94;4975910;28;20223;-75
2021/07/20 09:33:36;;;;;;;21.58;12.35;;;;;;;25.43;55.78;96482.31;4975746;28;20746;-74
2021/07/20 09:36:11;;;;;;;24.27;11.93;;;;;;;25.54;56.61;96475.06;4976105;28;20207;-74
2021/07/20 09:39:03;;;;;;;22.10;11.93;;;;;;;25.73;55.31;96478.94;4975523;28;20207;-74
2021/07/20 09:41:39;;;;;;;20.20;11.85;;;;;;;25.39;57.59;96470.41;4975311;28;20227;-74
2021/07/20 09:44:13;;;;;;;21.33;12.80;;;;;;;25.63;53.60;96484.28;4976267;28;20214;-74
2021/07/20 09:46:42;;;;;;;24.48;12.60;;;;;;;25.79;52.97;96472.47;4975489;28;20203;-74
2021/07/20 09:49:19;;;;;;;20.65;11.88;;;;;;;26.17;52.86;96470.94;4974497;28;20654;-74
2021/07/20 09:52:12;;;;;;;22.48;11.90;;;;;;;25.56;55.13;96471.03;4975698;28;20229;-74
2021/07/20 09:54:53;;;;;;;21.38;12.07;;;;;;;25.38;54.29;96479.56;4976037;28;20297;-74
2021/07/20 09:57:28;;;;;;;24.40;12.52;;;;;;;25.32;57.68;96471.72;4974759;28;20203;-74
2021/07/20 10:00:05;;;;;;;25.15;12.07;;;;;;;25.69;57.35;96477.78;4975683;28;20230;-74
2021/07/20 10:02:40;;;;;;;21.13;12.88;;;;;;;25.12;60.66;96473.50;4975846;28;20210;-74
2021/07/20 10:05:14;;;;;;;26.17;12.57;;;;;;;25.89;58.20;96467.88;4974803;28;20195;-74
2021/07/20 10:07:46;;;;;;;20.40;12.20;;;;;;;26.00;53.94;96467.66;4975293;28;20203;-74
2021/07/20 10:10:16;;;;;;;21.17;12.20;;;;;;;26.20;55.68;96469.59;4975045;28;20238;-74
2021/07/20 10:12:53;;;;;;;21.17;12.02;;;;;;;26.58;53.88;96465.31;4975537;28;20237;-74
2021/07/20 10:15:26;;;;;;;22.30;12.50;;;;;;;26.67;53.89;96471.78;4976028;28;20206;-74
2021/07/20 10:18:00;;;;;;;19.17;11.18;;;;;;;26.90;55.72;96465.81;4974820;28;20233;-74
2021/07/20 10:20:32;;;;;;;19.88;12.35;;;;;;;27.23;51.56;96466.06;4974460;28;20234;-74
2021/07/20 10:23:03;;;;;;;21.17;12.73;;;;;;;27.14;51.10;96456.88;4976986;28;20207;-74
2021/07/20 10:25:35;;;;;;;21.77;12.27;;;;;;;27.04;51.60;96460.69;4975345;28;20207;-74
2021/07/20 10:28:09;;;;;;;21.02;11.45;;;;;;;27.03;49.77;96450.97;4974379;28;20210;-74
2021/07/20 10:30:38;;;;;;;23.77;12.55;;;;;;;26.42;51.16;96452.06;4975304;28;20226;-74
2021/07/20 10:33:12;;;;;;;20.42;12.05;;;;;;;26.99;52.42;96458.81;4975352;28;20210;-74
2021/07/20 10:35:43;;;;;;;22.67;12.48;;;;;;;27.20;54.05;96458.50;4975637;28;20215;-74
2021/07/20 10:38:15;;;;;;;22.15;12.48;;;;;;;27.03;53.87;96457.16;4974849;28;20204;-74
2021/07/20 10:40:43;;;;;;;21.60;12.27;;;;;;;26.82;52.29;96460.97;4974944;28;20227;-74
2021/07/20 10:43:16;;;;;;;21.27;13.63;;;;;;;26.88;49.66;96457.16;4975209;28;20222;-74
2021/07/20 10:45:46;;;;;;;23.10;13.02;;;;;;;27.07;49.45;96455.53;4975034;28;20203;-74
2021/07/20 10:48:16;;;;;;;23.73;13.15;;;;;;;26.78;50.79;96456.38;4973710;28;20481;-74
2021/07/20 10:50:53;;;;;;;22.23;12.98;;;;;;;27.37;51.87;96450.06;4974500;28;20230;-74
2021/07/20 10:53:31;;;;;;;21.85;13.80;;;;;;;27.45;48.07;96447.56;4974287;28;20212;-74
2021/07/20 10:56:07;;;;;;;30.17;14.07;;;;;;;28.19;46.81;96443.69;4974523;28;20203;-74
2021/07/20 10:58:44;;;;;;;23.50;13.90;;;;;;;28.08;50.36;96449.44;4974206;28;20217;-74
2021/07/20 11:01:17;;;;;;;24.73;13.57;;;;;;;28.36;46.38;96444.94;4974751;28;20227;-74
2021/07/20 11:03:58;;;;;;;26.50;14.68;;;;;;;28.28;48.55;96452.03;4975062;28;20668;-74
2021/07/20 11:06:28;;;;;;;24.83;14.40;;;;;;;28.56;48.38;96442.03;4972382;28;20210;-75
2021/07/20 11:08:58;;;;;;;24.20;13.63;;;;;;;27.69;49.66;96438.53;4973861;28;20222;-74
2021/07/20 11:11:29;;;;;;;23.92;13.35;;;;;;;27.41;47.42;96438.38;4974401;28;20222;-74
2021/07/20 11:13:59;;;;;;;24.98;14.40;;;;;;;27.03;47.53;96438.22;4968512;28;20215;-74
2021/07/20 11:16:30;;;;;;;24.55;14.10;;;;;;;27.23;46.60;96438.97;4973024;28;20207;-73
2021/07/20 11:18:57;;;;;;;26.00;14.52;;;;;;;27.87;49.27;96428.97;4973599;28;21280;-73
2021/07/20 11:21:28;;;;;;;23.70;14.07;;;;;;;28.32;48.41;96432.19;4974836;28;20317;-73
2021/07/20 11:23:57;;;;;;;25.17;14.25;;;;;;;28.31;47.97;96424.34;4974693;28;20714;-73
2021/07/20 11:26:24;;;;;;;23.40;13.63;;;;;;;28.32;46.78;96421.34;4977769;28;20215;-73
2021/07/20 11:28:51;;;;;;;22.20;13.52;;;;;;;27.91;48.19;96432.75;4976354;28;20206;-74
2021/07/20 11:31:24;;;;;;;24.95;14.25;;;;;;;28.11;43.19;96419.06;4976708;28;20902;-73
2021/07/20 11:33:56;;;;;;;32.88;17.08;;;;;;;28.83;45.97;96423.41;4976637;28;20211;-73